Time;durP1;ratioP1;P1;durP2;ratioP2;P2;SDS_P1;SDS_P2;PMS_P1;PMS_P2;Temp;Humidity;BMP_temperature;BMP_pressure;BME280_temperature;BME280_humidity;BME280_pressure;Samples;Min_cycle;Max_cycle;Signal;HPM_P1;HPM_P2
2023/02/20 00:01:56;;;;;;;6.25;2.42;;;10.90;58.10;;;5.98;88.02;96688.25;4964998;28;20054;-55
2023/02/20 00:04:24;;;;;;;5.93;3.03;;;10.90;58.20;;;6.01;88.01;96681.75;4950480;29;20026;-52
2023/02/20 00:07:01;;;;;;;5.85;2.55;;;10.90;58.30;;;6.03;88.09;96688.47;4937563;28;20054;-54
2023/02/20 00:09:27;;;;;;;3.95;2.20;;;10.80;58.50;;;5.94;88.38;96688.91;4968065;28;20038;-55
2023/02/20 00:11:59;;;;;;;7.80;2.30;;;10.80;58.40;;;5.98;88.51;96687.47;4941162;28;20101;-55
2023/02/20 00:14:25;;;;;;;3.58;2.20;;;10.80;58.60;;;6.00;88.08;96694.16;4954740;28;20456;-53
2023/02/20 00:16:51;;;;;;;5.03;2.03;;;10.70;58.60;;;6.01;87.80;96690.50;4940795;28;20025;-53
2023/02/20 00:19:17;;;;;;;6.07;2.00;;;10.70;58.60;;;6.03;87.88;96698.22;4945588;28;20098;-53
2023/02/20 00:21:48;;;;;;;5.05;2.28;;;10.80;58.70;;;6.00;88.48;96693.34;4960638;28;20111;-56
2023/02/20 00:24:18;;;;;;;5.30;2.40;;;10.80;58.80;;;5.98;88.82;96695.41;4945440;28;20030;-55
2023/02/20 00:26:59;;;;;;;4.45;2.42;;;10.70;58.80;;;5.94;89.11;96696.84;4942209;28;20023;-52
2023/02/20 00:29:25;;;;;;;7.20;2.20;;;10.70;58.90;;;5.91;88.90;96692.75;4953400;28;20030;-57
2023/02/20 00:31:57;;;;;;;4.88;2.00;;;10.70;58.80;;;5.91;89.34;96692.75;4936382;28;20026;-55
2023/02/20 00:34:27;;;;;;;5.05;1.90;;;10.70;58.90;;;5.93;89.11;96700.50;4963168;28;20441;-52
2023/02/20 00:36:56;;;;;;;4.28;2.50;;;10.70;59.00;;;5.92;89.54;96702.31;4952324;28;20035;-51
2023/02/20 00:39:30;;;;;;;6.05;2.10;;;10.70;59.00;;;5.93;89.27;96703.97;4969608;28;20046;-55
2023/02/20 00:41:58;;;;;;;9.20;2.45;;;10.70;59.10;;;5.94;89.13;96699.47;4944770;28;20027;-52
2023/02/20 00:44:25;;;;;;;3.70;2.00;;;10.70;59.10;;;5.93;89.28;96690.75;4962129;28;20374;-50
2023/02/20 00:46:57;;;;;;;2.83;1.92;;;10.70;59.10;;;5.94;89.29;96696.84;4949744;28;20050;-53
2023/02/20 00:49:30;;;;;;;4.10;1.95;;;10.70;59.20;;;5.92;89.93;96704.13;4952579;28;20026;-51
2023/02/20 00:51:59;;;;;;;6.30;1.95;;;10.70;59.30;;;5.88;90.03;96708.22;4941697;28;20046;-52
2023/02/20 00:54:33;;;;;;;2.58;1.63;;;10.60;59.20;;;5.90;90.01;96709.63;4961342;28;20053;-55
2023/02/20 00:56:59;;;;;;;4.60;1.80;;;10.60;59.30;;;5.87;89.89;96717.19;4983040;28;20105;-53
2023/02/20 00:59:25;;;;;;;6.10;2.67;;;10.60;59.30;;;5.88;89.76;96708.22;4955945;28;20572;-50
2023/02/20 01:01:57;;;;;;;6.10;2.03;;;10.70;59.40;;;5.86;89.92;96711.09;4968327;28;20036;-53
2023/02/20 01:04:29;;;;;;;2.17;1.40;;;10.60;59.40;;;5.88;89.82;96711.66;4956954;28;20026;-51
2023/02/20 01:06:55;;;;;;;4.90;2.00;;;10.60;59.40;;;5.86;90.30;96704.94;4971161;28;20108;-53
2023/02/20 01:09:21;;;;;;;6.05;2.15;;;10.60;59.40;;;5.85;90.15;96704.16;4974068;28;20050;-54
2023/02/20 01:11:54;;;;;;;2.88;1.60;;;10.60;59.40;;;5.74;90.76;96708.25;4971348;28;20023;-57
2023/02/20 01:14:21;;;;;;;5.78;2.20;;;10.60;59.50;;;5.75;90.61;96717.00;4950309;28;20030;-50
2023/02/20 01:16:56;;;;;;;4.20;2.13;;;10.60;59.40;;;5.77;90.32;96713.13;4971645;28;20027;-50
2023/02/20 01:19:28;;;;;;;3.50;2.00;;;10.60;59.50;;;5.81;90.65;96710.88;4970909;28;20029;-56
2023/02/20 01:22:01;;;;;;;4.33;2.30;;;10.60;59.60;;;5.84;90.59;96722.88;4986712;28;20496;-50
2023/02/20 01:24:27;;;;;;;5.80;2.22;;;10.60;59.70;;;5.84;90.59;96709.66;4972344;28;20806;-51
2023/02/20 01:26:53;;;;;;;5.93;2.03;;;10.60;59.60;;;5.82;90.86;96703.75;4985664;28;20113;-50
2023/02/20 01:29:24;;;;;;;5.30;1.92;;;10.60;59.60;;;5.82;90.47;96707.19;4961103;28;20022;-50
2023/02/20 01:31:59;;;;;;;3.15;1.85;;;10.60;59.70;;;5.82;90.15;96695.81;4961713;28;20026;-50
2023/02/20 01:34:26;;;;;;;4.30;1.98;;;10.60;59.70;;;5.84;90.31;96707.00;4967101;28;20116;-51
2023/02/20 01:36:56;;;;;;;4.15;2.00;;;10.60;59.70;;;5.82;90.38;96709.84;4959187;28;20022;-51
2023/02/20 01:39:30;;;;;;;3.60;2.00;;;10.60;60.50;;;5.80;90.16;96701.31;4966994;28;20026;-50
2023/02/20 01:42:25;;;;;;;4.75;2.10;;;10.60;59.80;;;5.78;90.54;96703.34;4952870;28;20114;-52
2023/02/20 01:44:53;;;;;;;5.32;1.90;;;10.60;59.70;;;5.82;90.24;96706.41;4969060;28;20066;-55
2023/02/20 01:47:23;;;;;;;5.72;2.35;;;10.60;59.70;;;5.83;89.80;96705.38;4987393;28;20033;-52
2023/02/20 01:50:02;;;;;;;3.38;2.25;;;10.60;59.70;;;5.84;89.69;96697.25;4977072;28;20113;-56
2023/02/20 01:52:34;;;;;;;5.57;2.00;;;10.60;59.80;;;5.85;89.65;96704.16;4957304;28;20054;-57
2023/02/20 01:55:28;;;;;;;2.85;1.92;;;10.60;59.80;;;5.83;90.03;96705.38;4961296;28;20512;-53
2023/02/20 01:58:16;;;;;;;3.80;1.80;;;10.60;59.80;;;5.80;90.26;96712.72;4967972;28;20152;-56
2023/02/20 02:00:42;;;;;;;5.95;2.10;;;10.60;59.80;;;5.80;90.26;96718.00;4968586;28;20113;-53
2023/02/20 02:03:22;;;;;;;4.43;2.03;;;10.50;59.80;;;5.81;90.20;96713.53;4968300;28;20489;-50
2023/02/20 02:06:15;;;;;;;5.32;2.08;;;10.50;59.90;;;5.82;90.22;96720.41;4954896;28;20050;-53
2023/02/20 02:08:45;;;;;;;6.68;1.98;;;10.60;59.90;;;5.78;90.61;96709.44;4940394;28;20147;-54
2023/02/20 02:11:26;;;;;;;4.10;1.92;;;10.50;59.90;;;5.78;90.69;96706.81;4968395;28;20030;-52
2023/02/20 02:13:52;;;;;;;6.40;2.45;;;10.60;60.80;;;5.76;90.89;96700.09;4979877;28;20031;-55
2023/02/20 02:16:42;;;;;;;4.13;2.10;;;10.60;60.00;;;5.74;90.80;96699.50;4965887;28;20178;-53
2023/02/20 02:20:23;;;;;;;3.45;1.85;;;10.50;60.00;;;5.73;90.70;96701.31;4966246;28;20033;-53
2023/02/20 02:23:34;;;;;;;3.53;2.03;;;10.50;60.00;;;5.70;91.00;96704.41;4952895;28;20035;-55
2023/02/20 02:27:11;;;;;;;3.78;1.85;;;10.50;60.00;;;5.74;90.75;96702.97;4953082;28;20041;-53
2023/02/20 02:30:45;;;;;;;5.18;2.22;;;10.50;60.00;;;5.71;90.86;96690.16;4952648;28;20390;-53
2023/02/20 02:33:59;;;;;;;5.88;1.95;;;10.50;60.10;;;5.66;91.24;96694.44;4969778;28;20037;-53
2023/02/20 02:36:46;;;;;;;5.88;2.20;;;10.40;60.10;;;5.67;91.16;96686.31;4969199;28;20026;-57
2023/02/20 02:40:19;;;;;;;4.78;1.77;;;10.40;60.10;;;5.66;91.57;96694.44;4953642;28;20472;-52
2023/02/20 02:42:56;;;;;;;4.28;2.20;;;10.40;60.10;;;5.64;91.52;96684.06;4867261;29;20103;-56
2023/02/20 02:45:42;;;;;;;5.38;2.25;;;10.40;60.20;;;5.62;91.85;96693.22;4970643;28;20053;-52
2023/02/20 02:48:38;;;;;;;6.30;1.90;;;10.40;60.30;;;5.54;92.30;96679.19;4974746;28;20030;-54
2023/02/20 02:51:25;;;;;;;3.92;1.98;;;10.30;60.30;;;5.52;92.44;96678.59;4967244;28;20042;-54
2023/02/20 02:54:19;;;;;;;2.72;2.03;;;10.30;60.40;;;5.51;92.73;96676.94;4945439;23;20190;-47
2023/02/20 02:56:47;;;;;;;3.17;1.98;;;10.30;60.40;;;5.51;92.44;96681.44;4910348;29;20426;-49
2023/02/20 02:59:33;;;;;;;3.38;1.92;;;10.30;60.50;;;5.49;92.53;96679.00;4912987;29;20023;-52
2023/02/20 03:02:11;;;;;;;3.78;1.90;;;10.30;60.60;;;5.45;92.78;96680.44;4909720;29;20087;-51
2023/02/20 03:04:42;;;;;;;2.72;1.95;;;10.20;60.60;;;5.45;92.69;96687.53;4908009;29;20079;-49
2023/02/20 03:07:15;;;;;;;5.28;2.17;;;10.20;60.70;;;5.44;92.69;96692.00;4912308;29;20557;-55
2023/02/20 03:10:10;;;;;;;5.65;2.58;;;10.20;60.80;;;5.43;92.74;96684.31;4912909;29;20046;-52
2023/02/20 03:12:44;;;;;;;3.65;2.50;;;10.20;60.70;;;5.43;92.89;96679.03;4906931;29;20019;-52
2023/02/20 03:15:39;;;;;;;3.13;2.03;;;10.20;60.80;;;5.40;92.70;96674.13;4906710;29;20035;-49
2023/02/20 03:18:40;;;;;;;6.05;2.10;;;10.20;60.80;;;5.37;92.64;96674.56;4904730;29;20026;-51
2023/02/20 03:21:19;;;;;;;3.42;2.08;;;10.20;60.70;;;5.32;92.79;96675.97;4913667;29;20453;-53
2023/02/20 03:24:05;;;;;;;2.08;1.88;;;10.10;60.80;;;5.15;93.69;96674.75;4927662;29;20090;-52
2023/02/20 03:26:43;;;;;;;5.15;2.20;;;10.10;60.80;;;5.13;94.12;96666.22;4927222;29;20035;-49
2023/02/20 03:29:35;;;;;;;5.82;2.67;;;10.00;60.80;;;5.17;93.22;96656.06;4904496;29;20079;-53
2023/02/20 03:43:32;;;;;;;6.10;2.20;;;9.60;60.50;;;4.54;93.82;96651.94;4885518;29;20022;-52
2023/02/20 03:46:17;;;;;;;4.40;2.30;;;9.50;60.60;;;4.27;95.55;96647.63;4912613;29;20151;-49
2023/02/20 03:48:55;;;;;;;4.47;2.42;;;9.30;60.60;;;4.25;95.31;96645.19;4912370;29;20094;-52
2023/02/20 03:51:25;;;;;;;4.05;2.45;;;9.20;60.70;;;4.18;94.62;96641.72;4906137;29;20024;-50
2023/02/20 03:53:53;;;;;;;7.07;2.40;;;9.10;60.80;;;3.91;94.80;96641.59;4919573;29;20059;-54
2023/02/20 03:56:40;;;;;;;4.28;2.08;;;9.00;60.90;;;3.81;95.07;96643.81;4905428;29;20466;-50
2023/02/20 03:59:16;;;;;;;6.25;2.65;;;8.80;60.90;;;3.74;95.17;96642.16;4912283;29;20027;-50
2023/02/20 04:01:50;;;;;;;4.88;2.30;;;8.70;61.00;;;3.62;95.06;96641.88;4903208;29;20031;-52
2023/02/20 04:04:37;;;;;;;4.88;2.13;;;8.60;61.10;;;3.45;94.77;96651.94;4923738;29;20026;-50
2023/02/20 04:07:20;;;;;;;3.88;2.72;;;8.40;61.10;;;3.30;94.86;96641.50;4891670;29;20031;-55
2023/02/20 04:10:03;;;;;;;4.93;2.20;;;8.30;61.10;;;3.10;95.89;96643.16;4907611;29;20075;-52
2023/02/20 04:12:39;;;;;;;3.25;2.60;;;8.20;62.00;;;2.99;96.25;96636.63;4912285;29;20038;-52
2023/02/20 04:15:11;;;;;;;3.55;2.42;;;8.00;61.20;;;2.92;96.54;96633.13;4907313;29;20028;-49
2023/02/20 04:18:23;;;;;;;4.57;2.50;;;7.90;61.40;;;2.72;96.43;96630.31;4908892;29;20023;-49
2023/02/20 04:21:07;;;;;;;4.40;2.72;;;7.70;61.50;;;2.61;96.91;96630.84;4914764;29;20094;-50
2023/02/20 04:23:45;;;;;;;5.40;2.83;;;7.60;61.50;;;2.50;97.52;96632.94;4909535;29;20054;-49
2023/02/20 04:26:35;;;;;;;4.35;2.33;;;7.50;61.60;;;2.35;98.32;96631.38;4908010;29;20038;-52
2023/02/20 04:29:03;;;;;;;7.30;2.90;;;7.40;61.80;;;2.32;98.78;96619.44;4909884;29;20126;-49
2023/02/20 04:31:33;;;;;;;4.53;2.70;;;7.30;61.80;;;2.27;100.00;96622.63;4896276;29;20471;-50
2023/02/20 04:33:59;;;;;;;8.02;3.30;;;7.20;62.10;;;2.23;100.00;96634.50;4926216;29;20455;-58
2023/02/20 04:36:26;;;;;;;6.63;2.72;;;7.10;62.20;;;2.18;100.00;96634.25;4891929;29;20036;-49
2023/02/20 04:38:55;;;;;;;6.82;2.75;;;7.10;62.40;;;2.12;99.91;96634.19;4906673;29;20309;-49
2023/02/20 04:41:26;;;;;;;7.97;3.30;;;7.00;62.50;;;2.08;100.00;96625.84;4897242;29;20023;-53
2023/02/20 04:47:13;;;;;;;6.47;2.88;;;6.90;62.70;;;1.97;100.00;96623.69;4909372;29;20028;-50
2023/02/20 04:49:39;;;;;;;6.35;2.88;;;6.80;62.80;;;1.88;100.00;96617.75;4877011;29;20116;-51
2023/02/20 04:52:08;;;;;;;5.18;2.90;;;6.80;62.80;;;1.82;100.00;96621.94;4853122;29;20040;-54
2023/02/20 04:54:34;;;;;;;3.58;2.55;;;6.70;62.90;;;1.78;100.00;96625.09;4881442;29;20051;-53
2023/02/20 04:57:00;;;;;;;7.43;2.90;;;6.70;62.90;;;1.72;100.00;96624.00;4884250;29;20582;-49
2023/02/20 04:59:26;;;;;;;5.10;3.17;;;6.60;62.90;;;1.69;100.00;96631.44;4897131;29;20124;-52
2023/02/20 05:02:00;;;;;;;6.15;2.80;;;6.60;63.00;;;1.62;100.00;96626.91;4884766;29;20034;-51
2023/02/20 05:04:27;;;;;;;3.97;2.50;;;6.50;63.10;;;1.59;100.00;96624.66;4877164;29;20851;-58
2023/02/20 05:06:55;;;;;;;5.57;3.25;;;6.50;63.20;;;1.57;100.00;96626.66;4887029;29;20033;-49
2023/02/20 05:09:24;;;;;;;4.88;2.92;;;6.50;63.30;;;1.52;100.00;96620.31;4897950;29;20031;-58
2023/02/20 05:11:51;;;;;;;5.57;3.60;;;6.40;64.10;;;1.49;100.00;96621.50;4882632;29;20191;-59
2023/02/20 05:14:29;;;;;;;5.65;3.10;;;6.40;63.40;;;1.47;100.00;96620.06;4881444;29;20044;-49
2023/02/20 05:16:55;;;;;;;10.07;3.45;;;6.40;63.50;;;1.41;100.00;96615.53;4886895;29;20035;-51
2023/02/20 05:19:24;;;;;;;9.40;3.92;;;6.30;63.40;;;1.36;100.00;96624.75;4908936;29;20387;-49
2023/02/20 05:24:44;;;;;;;9.07;3.58;;;6.20;63.50;;;1.26;100.00;96629.47;4914921;29;20038;-53
2023/02/20 05:27:17;;;;;;;5.65;3.28;;;6.10;63.60;;;1.22;100.00;96619.50;4904264;29;20032;-52
2023/02/20 05:29:57;;;;;;;6.63;3.70;;;6.10;63.60;;;1.17;100.00;96622.69;4909122;29;20052;-52
2023/02/20 05:32:28;;;;;;;8.25;3.90;;;6.10;63.70;;;1.08;100.00;96621.13;4911512;29;20028;-50
2023/02/20 05:34:57;;;;;;;7.50;3.80;;;6.00;63.70;;;1.08;100.00;96624.56;4908314;29;20043;-49
2023/02/20 05:37:28;;;;;;;7.72;3.80;;;6.00;63.90;;;1.08;100.00;96615.88;4909124;29;20027;-56
2023/02/20 05:40:00;;;;;;;7.90;4.15;;;6.00;64.70;;;1.03;100.00;96618.22;4909880;29;20394;-49
2023/02/20 05:42:26;;;;;;;5.60;3.80;;;5.90;64.00;;;1.00;100.00;96622.00;4925074;29;20570;-53
2023/02/20 05:44:55;;;;;;;6.65;4.10;;;5.90;64.00;;;1.00;100.00;96621.19;4916429;28;20383;-48
2023/02/20 05:47:21;;;;;;;9.80;4.38;;;5.90;64.50;;;0.99;100.00;96620.38;4914462;29;20036;-52
2023/02/20 05:49:47;;;;;;;9.23;4.20;;;5.90;64.20;;;0.95;100.00;96613.06;4922434;29;20487;-49
2023/02/20 05:52:12;;;;;;;11.68;4.32;;;5.80;64.10;;;0.91;100.00;96615.25;4903315;29;20075;-53
2023/02/20 05:54:40;;;;;;;6.18;3.88;;;5.80;64.20;;;0.81;100.00;96612.84;4911687;29;20027;-54
2023/02/20 05:57:07;;;;;;;7.95;4.47;;;5.80;64.30;;;0.79;100.00;96612.22;4886711;29;20118;-53
2023/02/20 05:59:33;;;;;;;10.90;4.45;;;5.70;64.30;;;0.77;100.00;96619.44;4894133;29;20024;-56
2023/02/20 06:02:00;;;;;;;8.85;4.40;;;5.70;64.30;;;0.76;100.00;96614.41;4899328;29;20035;-49
2023/02/20 06:04:29;;;;;;;7.90;4.03;;;5.70;64.40;;;0.75;100.00;96610.13;4912982;29;20402;-48
2023/02/20 06:06:58;;;;;;;8.00;4.80;;;5.70;64.50;;;0.74;100.00;96611.13;4912829;29;20514;-53
2023/02/20 06:09:24;;;;;;;8.40;4.95;;;5.70;64.50;;;0.72;100.00;96620.97;4917013;29;20027;-49
2023/02/20 06:11:56;;;;;;;10.07;4.60;;;5.60;64.40;;;0.67;100.00;96606.59;4913413;29;20078;-49
2023/02/20 06:14:27;;;;;;;8.43;5.00;;;5.60;64.60;;;0.67;100.00;96613.66;4887725;29;20028;-50
2023/02/20 06:16:57;;;;;;;10.13;5.30;;;5.60;64.60;;;0.68;100.00;96610.81;4908310;29;20019;-49
2023/02/20 06:19:24;;;;;;;10.75;5.07;;;5.60;64.70;;;0.64;100.00;96614.00;4895896;29;20027;-50
2023/02/20 06:21:53;;;;;;;11.95;5.05;;;5.60;64.70;;;0.62;100.00;96611.53;4912656;29;20043;-55
2023/02/20 06:24:20;;;;;;;8.32;4.97;;;5.50;64.70;;;0.59;100.00;96618.94;4911922;29;20055;-52
2023/02/20 06:26:46;;;;;;;9.65;4.97;;;5.50;64.80;;;0.62;100.00;96614.16;4910964;29;20047;-49
2023/02/20 06:29:16;;;;;;;9.25;5.07;;;5.50;64.90;;;0.64;100.00;96609.56;4912548;29;20027;-49
2023/02/20 06:31:41;;;;;;;13.10;5.45;;;5.50;65.00;;;0.67;100.00;96603.16;4895594;29;20031;-51
2023/02/20 06:34:11;;;;;;;11.60;6.38;;;5.50;65.00;;;0.67;100.00;96609.22;4903933;29;20395;-49
2023/02/20 06:36:42;;;;;;;9.90;5.55;;;5.60;65.10;;;0.65;100.00;96607.75;4923868;29;20023;-48
2023/02/20 06:39:12;;;;;;;13.63;5.93;;;5.50;65.10;;;0.66;100.00;96606.78;4901752;29;20024;-48
2023/02/20 06:41:41;;;;;;;10.07;5.97;;;5.60;65.20;;;0.64;100.00;96612.19;4912666;29;20019;-50
2023/02/20 06:44:07;;;;;;;13.70;5.07;;;5.60;65.20;;;0.67;100.00;96608.41;4912063;29;20088;-49
2023/02/20 06:46:36;;;;;;;9.20;5.82;;;5.60;65.20;;;0.72;100.00;96607.84;4912421;29;20081;-52
2023/02/20 06:49:11;;;;;;;8.15;4.85;;;5.60;65.30;;;0.75;100.00;96610.13;4911858;29;20054;-51
2023/02/20 06:51:39;;;;;;;9.43;4.80;;;5.70;65.30;;;0.76;100.00;96609.16;4905115;29;20023;-51
2023/02/20 06:54:06;;;;;;;9.85;4.80;;;5.70;65.20;;;0.77;100.00;96605.53;4893491;29;20082;-52
2023/02/20 06:56:38;;;;;;;13.02;5.45;;;5.80;65.20;;;0.76;100.00;96599.47;4903918;29;20032;-52
2023/02/20 06:59:13;;;;;;;15.98;5.88;;;5.80;65.30;;;0.86;100.00;96613.13;4900640;29;20103;-51
2023/02/20 07:01:42;;;;;;;10.40;4.70;;;5.80;65.40;;;0.98;100.00;96602.22;4906630;29;20087;-51
2023/02/20 07:04:23;;;;;;;7.93;4.53;;;5.90;65.60;;;1.06;100.00;96596.88;4909635;29;20110;-50
2023/02/20 07:06:52;;;;;;;9.07;4.43;;;6.00;65.70;;;1.14;100.00;96609.91;4911671;29;20036;-48
2023/02/20 07:09:19;;;;;;;7.18;4.47;;;6.10;65.70;;;1.24;100.00;96607.03;4923354;28;20034;-50
2023/02/20 07:11:49;;;;;;;11.88;4.68;;;6.10;65.70;;;1.31;100.00;96610.53;4893936;29;21035;-51
2023/02/20 07:14:15;;;;;;;9.70;4.93;;;6.20;65.80;;;1.42;100.00;96617.97;4892050;29;20042;-50
2023/02/20 07:16:41;;;;;;;8.60;4.20;;;6.30;65.70;;;1.52;100.00;96623.75;4912592;29;20031;-52
2023/02/20 07:19:07;;;;;;;11.77;5.25;;;6.40;65.80;;;1.60;100.00;96628.94;4910999;29;20027;-50
2023/02/20 07:21:33;;;;;;;9.88;5.10;;;6.50;65.70;;;1.64;100.00;96620.69;4927164;29;20027;-51
2023/02/20 07:23:59;;;;;;;11.52;4.93;;;6.60;65.80;;;1.73;100.00;96611.72;4912328;29;20033;-53
2023/02/20 07:26:28;;;;;;;10.00;4.85;;;6.70;65.90;;;1.86;100.00;96609.22;4926184;29;20034;-51
2023/02/20 07:29:08;;;;;;;13.98;5.20;;;6.80;66.00;;;1.95;100.00;96617.84;4894823;29;20483;-55
2023/02/20 07:31:40;;;;;;;18.23;6.40;;;6.90;65.90;;;2.14;100.00;96621.69;4910345;28;20036;-52
2023/02/20 07:34:14;;;;;;;19.40;5.55;;;7.00;66.10;;;2.26;100.00;96613.09;4926666;29;20035;-49
2023/02/20 07:36:41;;;;;;;17.10;6.43;;;7.20;66.10;;;2.38;100.00;96615.22;4901264;29;20023;-53
2023/02/20 07:39:12;;;;;;;9.23;5.53;;;7.30;66.00;;;2.52;100.00;96609.09;4910549;29;20038;-49
2023/02/20 07:41:39;;;;;;;13.23;5.30;;;7.50;66.10;;;2.67;100.00;96603.78;4911419;29;20566;-49
2023/02/20 07:44:15;;;;;;;10.98;5.63;;;7.70;66.10;;;2.80;100.00;96601.25;4911200;29;20039;-52
2023/02/20 07:46:41;;;;;;;13.15;6.35;;;7.90;66.10;;;3.01;100.00;96600.41;4892086;29;20027;-50
2023/02/20 07:49:07;;;;;;;13.75;5.40;;;8.10;65.90;;;3.36;100.00;96601.22;4902021;29;20557;-53
2023/02/20 07:51:38;;;;;;;10.80;5.57;;;8.50;65.90;;;3.77;100.00;96604.88;4890169;29;20773;-50
2023/02/20 07:54:13;;;;;;;12.85;5.50;;;8.90;65.70;;;4.22;100.00;96607.84;4891002;29;20478;-54
2023/02/20 07:56:41;;;;;;;8.23;4.82;;;9.30;65.50;;;4.56;100.00;96607.69;4889444;29;20122;-52
2023/02/20 07:59:08;;;;;;;8.40;4.90;;;9.70;65.20;;;4.95;100.00;96610.56;4909662;29;20491;-51
2023/02/20 08:01:35;;;;;;;7.93;4.18;;;10.00;64.80;;;5.23;100.00;96605.03;4908776;29;20038;-53
2023/02/20 08:04:01;;;;;;;9.23;3.70;;;10.30;64.60;;;5.43;100.00;96610.31;4925441;29;20031;-49
2023/02/20 08:06:27;;;;;;;4.72;3.25;;;10.50;64.20;;;5.57;98.31;96609.25;4922002;29;20039;-56
2023/02/20 08:08:53;;;;;;;4.15;2.90;;;10.60;63.90;;;5.71;96.44;96600.25;4909342;29;20031;-52
2023/02/20 08:11:23;;;;;;;4.63;3.45;;;10.70;64.40;;;5.83;94.72;96602.25;4926620;29;20101;-49
2023/02/20 08:13:50;;;;;;;6.47;3.20;;;10.90;63.20;;;5.96;93.40;96596.94;4909715;29;20063;-51
2023/02/20 08:16:28;;;;;;;19.10;3.72;;;11.10;63.00;;;6.12;93.13;96599.09;4910861;29;20030;-49
2023/02/20 08:18:54;;;;;;;4.20;3.42;;;11.30;62.60;;;6.34;92.22;96596.16;4909962;29;20110;-49
2023/02/20 08:21:21;;;;;;;4.25;2.75;;;11.50;62.10;;;6.57;87.80;96596.38;4910560;29;20037;-50
2023/02/20 08:23:59;;;;;;;5.18;2.90;;;11.90;61.70;;;7.01;86.08;96591.97;4891399;29;20159;-49
2023/02/20 08:26:28;;;;;;;4.72;3.05;;;12.30;61.00;;;7.43;83.08;96586.91;4907947;29;20395;-51
2023/02/20 08:29:00;;;;;;;4.30;2.50;;;12.90;60.60;;;7.87;82.14;96595.59;4912167;29;20039;-49
2023/02/20 08:31:27;;;;;;;4.90;2.50;;;13.30;60.10;;;8.25;78.19;96595.31;4897179;29;20019;-55
2023/02/20 08:33:53;;;;;;;5.32;2.97;;;13.80;59.60;;;8.69;75.27;96592.47;4907906;29;20087;-54
2023/02/20 08:36:25;;;;;;;3.75;2.90;;;14.30;59.00;;;9.00;73.31;96584.22;4910795;29;20453;-57
2023/02/20 08:38:54;;;;;;;6.15;2.67;;;14.70;58.40;;;9.33;70.67;96587.34;4928655;29;20028;-53
2023/02/20 08:41:20;;;;;;;5.20;2.55;;;15.10;57.60;;;9.56;69.26;96592.66;4930213;29;20479;-53
2023/02/20 08:43:46;;;;;;;4.28;2.70;;;15.50;57.20;;;9.77;68.21;96588.56;4912797;29;20031;-53
2023/02/20 08:46:12;;;;;;;3.47;2.60;;;15.80;56.50;;;10.03;67.62;96592.56;4898114;29;20117;-49
2023/02/20 08:48:38;;;;;;;3.22;2.42;;;16.20;55.90;;;10.22;66.34;96590.53;4905609;29;20028;-52
2023/02/20 08:51:06;;;;;;;3.97;2.42;;;16.50;55.30;;;10.38;64.99;96584.47;4893808;29;20024;-51
2023/02/20 08:53:40;;;;;;;5.70;2.80;;;16.80;54.70;;;10.69;63.65;96582.34;4896541;29;20048;-51
2023/02/20 08:56:08;;;;;;;4.15;2.60;;;17.10;53.80;;;11.09;62.92;96576.88;4904497;29;20052;-50
2023/02/20 08:58:40;;;;;;;5.35;2.35;;;17.40;53.40;;;11.36;60.18;96573.50;4912203;29;20055;-50
2023/02/20 09:01:06;;;;;;;5.93;2.88;;;17.60;52.70;;;11.62;60.19;96568.53;4912519;29;20134;-53
2023/02/20 09:03:37;;;;;;;5.05;2.60;;;17.90;52.60;;;11.81;59.01;96576.00;4913272;29;20026;-51
2023/02/20 09:06:09;;;;;;;3.80;2.15;;;18.20;52.00;;;11.98;57.54;96583.16;4915350;29;20513;-51
2023/02/20 09:08:41;;;;;;;3.10;2.25;;;18.50;51.10;;;12.19;55.93;96577.00;4911064;29;20028;-51
2023/02/20 09:11:06;;;;;;;6.57;3.00;;;18.80;50.60;;;12.46;56.20;96574.34;4914878;29;20506;-50
2023/02/20 09:13:51;;;;;;;6.55;2.97;;;19.00;50.20;;;12.77;55.68;96574.63;4912302;29;20027;-49
2023/02/20 09:16:24;;;;;;;6.22;2.70;;;19.30;49.40;;;13.10;54.86;96578.09;4928459;29;20028;-49
2023/02/20 09:18:50;;;;;;;4.97;2.88;;;19.60;49.10;;;13.34;53.88;96582.06;4914196;29;20028;-53
2023/02/20 09:21:19;;;;;;;4.70;3.00;;;19.90;48.90;;;13.63;53.05;96570.97;4913212;29;20043;-49
2023/02/20 09:23:45;;;;;;;8.32;2.80;;;20.10;48.10;;;13.78;52.05;96572.94;4913077;29;20091;-49
2023/02/20 09:26:11;;;;;;;2.95;2.55;;;20.40;47.60;;;13.97;51.65;96568.75;4912835;29;20035;-54
2023/02/20 09:28:40;;;;;;;4.53;2.63;;;20.60;46.90;;;14.13;50.91;96577.63;4898265;29;20027;-54
2023/02/20 09:31:10;;;;;;;7.53;3.08;;;20.70;46.10;;;14.31;49.88;96571.00;4912248;29;20055;-51
2023/02/20 09:33:37;;;;;;;4.03;3.00;;;20.80;45.70;;;14.42;50.25;96569.97;4914346;29;20039;-50
2023/02/20 09:36:03;;;;;;;7.57;3.65;;;21.00;45.40;;;14.42;49.99;96567.28;4914523;29;20035;-50
2023/02/20 09:38:29;;;;;;;6.43;3.53;;;21.10;45.00;;;14.00;51.41;96560.19;4913979;29;20398;-51
2023/02/20 09:41:00;;;;;;;10.02;4.13;;;21.30;44.60;;;14.12;51.22;96558.06;4901081;29;20024;-52
2023/02/20 09:43:54;;;;;;;5.43;3.08;;;21.40;44.00;;;14.32;50.95;96554.66;4886753;29;20290;-47
2023/02/20 09:46:24;;;;;;;6.93;3.70;;;21.50;43.70;;;14.42;49.99;96559.25;4896423;29;20111;-48
2023/02/20 09:49:33;;;;;;;4.15;2.80;;;21.60;43.60;;;14.38;49.70;96557.34;4905298;29;20035;-52
2023/02/20 09:52:13;;;;;;;6.38;3.40;;;21.80;43.10;;;14.40;49.47;96553.34;4892871;29;20650;-51
2023/02/20 09:55:01;;;;;;;6.70;3.75;;;21.90;42.60;;;14.58;48.82;96555.53;4877379;29;20103;-52
2023/02/20 09:57:35;;;;;;;4.85;3.15;;;22.00;42.80;;;14.99;48.40;96560.13;4864610;29;20127;-50
2023/02/20 10:00:35;;;;;;;4.95;3.35;;;22.20;42.00;;;15.14;46.46;96560.13;4877692;29;20059;-49
2023/02/20 10:03:39;;;;;;;8.77;6.43;;;22.30;41.70;;;15.33;45.82;96551.53;4851711;29;20113;-50
2023/02/20 10:06:18;;;;;;;12.35;8.48;;;22.40;40.80;;;15.47;45.59;96553.34;4874336;29;20028;-48
2023/02/20 10:08:52;;;;;;;4.43;3.40;;;22.50;40.50;;;15.26;45.94;96549.09;4851970;29;20084;-48
2023/02/20 10:12:03;;;;;;;4.38;2.92;;;22.60;40.20;;;14.46;47.29;96549.59;4868314;29;20122;-49
2023/02/20 10:15:21;;;;;;;9.85;6.68;;;22.70;40.10;;;14.67;47.16;96553.16;4843970;29;20163;-50
2023/02/20 10:18:28;;;;;;;6.97;3.20;;;22.70;39.90;;;15.04;47.17;96546.69;4858153;29;20028;-48
2023/02/20 10:21:08;;;;;;;6.97;3.22;;;22.80;39.70;;;15.23;46.69;96549.63;4874982;29;20035;-48
2023/02/20 10:24:01;;;;;;;3.58;3.25;;;22.90;39.40;;;15.43;45.96;96554.19;4905061;29;20110;-49
2023/02/20 10:26:41;;;;;;;13.93;8.40;;;23.00;39.00;;;15.35;45.75;96558.22;4894945;29;20027;-48
2023/02/20 10:29:33;;;;;;;16.25;8.85;;;23.10;38.80;;;15.40;46.18;96552.03;4899623;29;20039;-52
2023/02/20 10:32:20;;;;;;;6.43;3.65;;;23.20;38.50;;;15.55;45.83;96559.28;4901353;29;20024;-54
2023/02/20 10:35:10;;;;;;;4.55;3.90;;;23.30;38.30;;;15.94;45.28;96567.50;4911814;29;20582;-48
2023/02/20 10:37:49;;;;;;;4.53;3.42;;;23.50;38.30;;;16.18;44.59;96560.41;4895782;29;20110;-50
2023/02/20 10:40:57;;;;;;;6.47;4.07;;;23.70;38.00;;;16.41;45.04;96563.50;4895094;29;20546;-50
2023/02/20 10:44:00;;;;;;;6.80;5.20;;;24.00;37.90;;;16.14;45.16;96553.19;4909291;29;20031;-53
2023/02/20 10:46:54;;;;;;;;;;;24.20;37.50;;;16.32;44.75;96560.59;4912514;29;20023;-49
2023/02/20 10:50:17;;;;;;;4.05;3.55;;;24.30;38.30;;;16.19;44.63;96547.78;4896535;29;19911;-50
2023/02/20 10:53:06;;;;;;;6.27;3.37;;;24.60;37.30;;;16.45;44.71;96542.25;4910686;29;20035;-53
2023/02/20 10:56:21;;;;;;;7.57;5.47;;;24.70;37.10;;;16.66;44.08;96549.09;4910379;29;20293;-49
2023/02/20 10:59:25;;;;;;;4.47;3.80;;;24.90;37.00;;;16.64;43.85;96543.22;4882094;29;20173;-50
2023/02/20 11:02:10;;;;;;;11.43;7.18;;;25.00;36.30;;;16.65;43.23;96539.44;4877784;29;20063;-51
2023/02/20 11:05:00;;;;;;;11.95;8.38;;;25.20;35.90;;;16.67;43.61;96537.25;4893435;29;20038;-50
2023/02/20 11:07:26;;;;;;;5.43;3.35;;;25.20;35.40;;;16.84;42.34;96534.22;4911730;29;20030;-49
2023/02/20 11:09:58;;;;;;;6.30;3.65;;;25.40;35.30;;;17.35;42.13;96533.75;4913249;29;20490;-49
2023/02/20 11:13:10;;;;;;;6.28;4.78;;;25.50;34.90;;;17.78;41.42;96521.19;4911804;29;20027;-49
2023/02/20 11:15:37;;;;;;;6.75;3.70;;;25.70;34.90;;;18.01;41.47;96518.75;4907033;29;20127;-49
2023/02/20 11:18:38;;;;;;;5.25;3.72;;;25.90;34.70;;;18.35;40.76;96518.59;4902366;29;20494;-49
2023/02/20 11:21:43;;;;;;;5.20;3.90;;;26.20;34.50;;;18.40;40.56;96515.81;4924031;29;20132;-48